createdAt,value
2018-04-20T00:05:11.742Z,10.00
2018-04-20T00:07:46.176Z,10.00
2018-04-20T00:10:21.086Z,10.00
2018-04-20T00:12:55.975Z,9.90
2018-04-20T00:15:29.606Z,9.90
2018-04-20T00:18:04.243Z,9.70
2018-04-20T00:20:38.153Z,9.70
2018-04-20T00:23:14.130Z,9.50
2018-04-20T00:25:48.716Z,9.50
2018-04-20T00:28:22.560Z,9.50
2018-04-20T00:30:57.231Z,9.50
2018-04-20T00:33:32.034Z,9.50
2018-04-20T00:36:05.935Z,9.50
2018-04-20T00:38:40.053Z,9.60
2018-04-20T00:41:14.219Z,9.60
2018-04-20T00:43:49.718Z,9.60
2018-04-20T00:46:24.476Z,9.40
2018-04-20T00:49:04.949Z,9.40
2018-04-20T00:51:40.092Z,9.40
2018-04-20T00:54:24.246Z,9.20
2018-04-20T00:56:58.998Z,9.10
2018-04-20T00:59:33.187Z,9.10
2018-04-20T01:02:08.155Z,9.10
2018-04-20T01:04:42.642Z,8.90
2018-04-20T01:07:17.835Z,8.90
2018-04-20T01:09:51.886Z,8.90
2018-04-20T01:12:25.558Z,9.00
2018-04-20T01:15:00.416Z,8.90
2018-04-20T01:17:34.999Z,8.70
2018-04-20T01:20:09.927Z,8.60
2018-04-20T01:22:43.464Z,8.60
2018-04-20T01:25:17.377Z,8.70
2018-04-20T01:27:51.091Z,8.80
2018-04-20T01:30:25.448Z,8.60
2018-04-20T01:32:58.973Z,8.60
2018-04-20T01:35:33.256Z,8.60
2018-04-20T01:38:07.417Z,8.40
2018-04-20T01:40:41.483Z,8.40
2018-04-20T01:43:16.230Z,8.40
2018-04-20T01:45:50.058Z,8.40
2018-04-20T01:48:23.669Z,8.40
2018-04-20T01:50:57.443Z,8.20
2018-04-20T01:53:31.178Z,8.30
2018-04-20T01:56:05.463Z,8.20
2018-04-20T01:58:39.162Z,8.30
2018-04-20T02:01:12.780Z,8.30
2018-04-20T02:03:47.118Z,8.00
2018-04-20T02:06:20.918Z,8.00
2018-04-20T02:08:55.942Z,7.90
2018-04-20T02:11:29.794Z,7.80
2018-04-20T02:14:03.470Z,7.80
2018-04-20T02:16:36.947Z,7.80
2018-04-20T02:19:10.554Z,7.90
2018-04-20T02:21:45.087Z,7.90
2018-04-20T02:24:19.690Z,7.70
2018-04-20T02:26:53.443Z,7.60
2018-04-20T02:29:27.096Z,7.50
2018-04-20T02:32:01.187Z,7.50
2018-04-20T02:34:35.633Z,7.60
2018-04-20T02:37:10.363Z,7.70
2018-04-20T02:39:44.765Z,7.50
2018-04-20T02:42:19.412Z,7.30
2018-04-20T02:44:53.232Z,7.30
2018-04-20T02:47:27.432Z,7.40
2018-04-20T02:50:01.120Z,7.40
2018-04-20T02:52:35.485Z,7.40
2018-04-20T02:55:09.665Z,7.30
2018-04-20T02:57:43.361Z,7.30
2018-04-20T03:00:17.061Z,7.30
2018-04-20T03:02:51.141Z,7.30
2018-04-20T03:05:25.334Z,7.40
2018-04-20T03:07:59.238Z,7.40
2018-04-20T03:10:33.776Z,7.20
2018-04-20T03:13:07.547Z,7.20
2018-04-20T03:15:42.840Z,7.10
2018-04-20T03:18:16.853Z,7.10
2018-04-20T03:20:50.603Z,7.10
2018-04-20T03:23:24.542Z,7.20
2018-04-20T03:25:58.370Z,7.20
2018-04-20T03:28:32.487Z,7.00
2018-04-20T03:31:06.248Z,6.90
2018-04-20T03:33:40.295Z,6.90
2018-04-20T03:36:13.994Z,6.90
2018-04-20T03:38:48.193Z,6.90
2018-04-20T03:41:22.760Z,6.90
2018-04-20T03:43:57.647Z,6.80
2018-04-20T03:46:31.882Z,6.80
2018-04-20T03:49:06.297Z,6.40
2018-04-20T03:51:40.915Z,6.40
2018-04-20T03:54:15.523Z,6.30
2018-04-20T03:56:50.061Z,6.30
2018-04-20T03:59:23.779Z,6.30
2018-04-20T04:01:59.316Z,6.30
2018-04-20T04:04:33.591Z,6.30
2018-04-20T04:07:09.565Z,6.30
2018-04-20T04:09:43.991Z,6.50
2018-04-20T04:12:19.114Z,6.50
2018-04-20T04:14:53.091Z,6.50
2018-04-20T04:17:38.841Z,6.50
2018-04-20T04:20:24.749Z,6.60
2018-04-20T04:23:10.627Z,6.50
2018-04-20T04:39:16.456Z,6.30
2018-04-20T04:41:50.791Z,6.20
2018-04-20T04:44:25.296Z,6.20
2018-04-20T04:46:59.818Z,6.20
2018-04-20T04:49:33.512Z,6.20
2018-04-20T04:52:08.261Z,6.40
2018-04-20T04:54:41.810Z,6.40
2018-04-20T04:57:16.118Z,6.50
2018-04-20T04:59:50.584Z,6.40
2018-04-20T05:02:24.478Z,6.40
2018-04-20T05:04:58.617Z,6.40
2018-04-20T05:07:32.271Z,6.50
2018-04-20T05:10:06.092Z,6.50
2018-04-20T05:12:39.964Z,6.70
2018-04-20T05:15:14.639Z,6.70
2018-04-20T05:17:50.024Z,6.70
2018-04-20T05:20:23.779Z,6.60
2018-04-20T05:22:58.322Z,6.80
2018-04-20T05:25:32.224Z,6.80
2018-04-20T05:28:07.251Z,6.80
2018-04-20T05:30:40.913Z,6.80
2018-04-20T05:33:14.487Z,6.90
2018-04-20T05:35:48.519Z,7.00
2018-04-20T05:38:22.215Z,7.20
2018-04-20T05:40:55.915Z,7.30
2018-04-20T05:43:30.571Z,7.60
2018-04-20T05:46:04.998Z,7.60
2018-04-20T05:48:38.542Z,7.60
2018-04-20T05:51:12.801Z,7.90
2018-04-20T05:53:47.093Z,8.00
2018-04-20T05:56:20.936Z,8.00
2018-04-20T05:58:55.027Z,8.10
2018-04-20T06:01:34.293Z,8.40
2018-04-20T06:04:10.154Z,8.60
2018-04-20T06:06:44.328Z,8.50
2018-04-20T06:09:18.161Z,8.80
2018-04-20T06:11:52.219Z,8.90
2018-04-20T06:14:25.956Z,9.10
2018-04-20T06:17:00.395Z,9.10
2018-04-20T06:19:34.190Z,9.40
2018-04-20T06:22:09.189Z,9.60
2018-04-20T06:24:42.878Z,9.60
2018-04-20T06:27:17.516Z,9.90
2018-04-20T06:29:52.770Z,10.10
2018-04-20T06:32:26.444Z,10.00
2018-04-20T06:35:00.386Z,10.20
2018-04-20T06:37:34.784Z,10.50
2018-04-20T06:40:08.471Z,10.40
2018-04-20T06:42:42.099Z,10.60
2018-04-20T06:45:16.635Z,11.00
2018-04-20T06:47:50.983Z,11.20
2018-04-20T06:50:24.454Z,11.20
2018-04-20T06:52:58.897Z,11.70
2018-04-20T06:55:33.496Z,11.90
2018-04-20T06:58:07.151Z,11.90
2018-04-20T07:00:41.554Z,12.20
2018-04-20T07:03:15.497Z,12.20
2018-04-20T07:05:49.956Z,12.40
2018-04-20T07:08:24.451Z,12.60
2018-04-20T07:10:58.346Z,12.60
2018-04-20T07:13:31.970Z,12.90
2018-04-20T07:16:05.989Z,13.10
2018-04-20T07:18:39.523Z,13.30
2018-04-20T07:21:13.354Z,13.40
2018-04-20T07:23:47.809Z,13.40
2018-04-20T07:26:21.904Z,13.40
2018-04-20T07:28:55.831Z,13.40
2018-04-20T07:31:30.747Z,13.80
2018-04-20T07:34:04.784Z,13.70
2018-04-20T07:36:39.011Z,14.20
2018-04-20T07:39:13.513Z,14.50
2018-04-20T07:41:47.101Z,14.40
2018-04-20T07:44:20.978Z,14.60
2018-04-20T07:46:55.467Z,15.10
2018-04-20T07:49:29.948Z,15.30
2018-04-20T07:52:03.686Z,15.30
2018-04-20T07:54:37.545Z,15.60
2018-04-20T07:57:12.053Z,15.90
2018-04-20T07:59:46.836Z,16.00
2018-04-20T08:02:21.214Z,16.10
2018-04-20T08:04:56.078Z,16.30
2018-04-20T08:07:30.379Z,16.50
2018-04-20T08:10:04.083Z,16.50
2018-04-20T08:12:38.591Z,17.10
2018-04-20T08:15:13.116Z,17.20
2018-04-20T08:17:47.647Z,17.80
2018-04-20T08:20:22.080Z,17.80
2018-04-20T08:22:56.715Z,17.90
2018-04-20T08:25:31.331Z,17.80
2018-04-20T08:28:06.131Z,18.10
2018-04-20T08:30:39.675Z,18.10
2018-04-20T08:33:13.550Z,18.30
2018-04-20T08:35:49.069Z,18.60
2018-04-20T08:38:22.924Z,18.60
2018-04-20T08:40:56.970Z,18.90
2018-04-20T08:43:31.592Z,19.30
2018-04-20T08:46:05.125Z,19.30
2018-04-20T08:48:39.221Z,19.60
2018-04-20T08:51:13.956Z,19.90
2018-04-20T08:53:47.826Z,19.80
2018-04-20T08:56:21.970Z,20.30
2018-04-20T08:58:55.720Z,20.50
2018-04-20T09:01:29.371Z,21.00
2018-04-20T09:04:04.080Z,21.20
2018-04-20T09:06:37.870Z,21.20
2018-04-20T09:09:12.577Z,21.90
2018-04-20T09:11:47.192Z,22.20
2018-04-20T09:14:22.438Z,22.10
2018-04-20T09:16:56.272Z,22.10
2018-04-20T09:19:30.399Z,21.90
2018-04-20T09:22:04.632Z,22.50
2018-04-20T09:24:40.122Z,22.80
2018-04-20T09:27:13.930Z,22.80
2018-04-20T09:29:48.384Z,23.20
2018-04-20T09:32:21.887Z,23.10
2018-04-20T09:34:55.503Z,23.00
2018-04-20T09:37:29.200Z,23.40
2018-04-20T09:40:02.827Z,24.30
2018-04-20T09:42:36.619Z,24.80
2018-04-20T09:45:10.168Z,25.20
2018-04-20T09:47:43.664Z,24.80
2018-04-20T09:50:17.275Z,25.50
2018-04-20T09:52:51.623Z,25.40
2018-04-20T09:55:25.223Z,25.40
2018-04-20T09:57:59.641Z,24.20
2018-04-20T10:00:39.589Z,24.30
2018-04-20T10:03:13.195Z,24.30
2018-04-20T10:05:47.887Z,23.70
2018-04-20T10:08:22.236Z,23.80
2018-04-20T10:10:56.838Z,24.80
2018-04-20T10:13:31.250Z,25.80
2018-04-20T10:16:06.483Z,26.10
2018-04-20T10:18:40.114Z,26.10
2018-04-20T10:21:14.568Z,25.30
2018-04-20T10:23:49.154Z,25.20
2018-04-20T10:26:22.729Z,25.20
2018-04-20T10:28:56.429Z,25.10
2018-04-20T10:31:31.058Z,25.10
2018-04-20T10:34:04.779Z,25.00
2018-04-20T10:36:38.402Z,24.90
2018-04-20T10:39:11.987Z,24.50
2018-04-20T10:41:45.620Z,24.80
2018-04-20T10:44:20.166Z,25.90
2018-04-20T10:46:53.799Z,26.00
2018-04-20T10:49:27.593Z,26.60
2018-04-20T10:52:01.351Z,27.10
2018-04-20T10:54:36.039Z,28.00
2018-04-20T10:57:09.783Z,28.00
2018-04-20T10:59:43.543Z,28.20
2018-04-20T11:02:17.019Z,27.50
2018-04-20T11:04:50.693Z,26.40
2018-04-20T11:07:25.154Z,28.30
2018-04-20T11:09:58.839Z,28.20
2018-04-20T11:13:33.381Z,28.30
2018-04-20T11:16:07.351Z,28.30
2018-04-20T11:18:41.839Z,28.00
2018-04-20T11:21:16.605Z,29.00
2018-04-20T11:23:50.496Z,29.00
2018-04-20T11:26:25.924Z,30.20
2018-04-20T11:29:00.275Z,30.70
2018-04-20T11:31:34.824Z,31.00
2018-04-20T11:34:09.511Z,31.40
2018-04-20T11:36:44.058Z,31.90
2018-04-20T11:39:17.682Z,31.80
2018-04-20T11:41:52.144Z,32.40
2018-04-20T11:44:26.758Z,32.10
2018-04-20T11:47:01.260Z,32.30
2018-04-20T11:49:35.810Z,33.00
2018-04-20T11:52:09.605Z,33.00
2018-04-20T12:07:49.391Z,32.30
2018-04-20T12:10:23.355Z,32.30
2018-04-20T12:12:57.755Z,32.90
2018-04-20T12:15:31.428Z,32.90
2018-04-20T12:18:05.258Z,33.70
2018-04-20T12:20:39.035Z,33.70
2018-04-20T12:23:12.787Z,33.50
2018-04-20T12:25:47.143Z,33.10
2018-04-20T12:28:21.602Z,32.60
2018-04-20T12:30:55.279Z,32.50
2018-04-20T12:33:29.084Z,31.70
2018-04-20T12:36:02.592Z,32.20
2018-04-20T12:38:37.220Z,34.20
2018-04-20T12:41:11.627Z,34.70
2018-04-20T12:43:46.141Z,34.80
2018-04-20T12:46:20.711Z,35.50
2018-04-20T12:48:55.104Z,35.60
2018-04-20T12:51:28.887Z,35.50
2018-04-20T12:54:03.391Z,36.60
2018-04-20T12:56:37.943Z,36.50
2018-04-20T12:59:11.789Z,36.50
2018-04-20T13:01:46.355Z,37.00
2018-04-20T13:04:21.745Z,37.50
2018-04-20T13:06:55.324Z,37.50
2018-04-20T13:09:29.174Z,36.00
2018-04-20T13:12:02.702Z,36.40
2018-04-20T13:14:37.270Z,34.60
2018-04-20T13:17:11.313Z,34.60
2018-04-20T13:19:45.144Z,35.10
2018-04-20T13:22:18.918Z,34.30
2018-04-20T13:24:53.385Z,36.00
2018-04-20T13:27:28.515Z,37.30
2018-04-20T13:30:02.466Z,37.30
2018-04-20T13:32:36.150Z,37.60
2018-04-20T13:35:11.354Z,36.20
2018-04-20T13:37:46.682Z,38.10
2018-04-20T13:40:21.511Z,38.30
2018-04-20T13:42:56.020Z,38.30
2018-04-20T13:45:29.657Z,38.30
2018-04-20T13:48:04.335Z,38.20
2018-04-20T13:50:38.046Z,38.10
2018-04-20T13:53:12.015Z,39.00
2018-04-20T13:55:46.581Z,38.80
2018-04-20T13:58:21.225Z,37.80
2018-04-20T14:00:55.707Z,37.20
2018-04-20T14:03:29.543Z,37.20
2018-04-20T14:06:04.824Z,37.30
2018-04-20T14:08:38.855Z,37.30
2018-04-20T14:11:12.763Z,36.10
2018-04-20T14:13:46.303Z,36.50
2018-04-20T14:16:20.070Z,37.90
2018-04-20T14:18:54.773Z,38.90
2018-04-20T14:21:29.457Z,39.60
2018-04-20T14:24:03.178Z,39.70
2018-04-20T14:26:37.594Z,37.80
2018-04-20T14:29:11.994Z,38.80
2018-04-20T14:31:45.763Z,38.80
2018-04-20T14:34:19.409Z,39.50
2018-04-20T14:36:53.770Z,38.00
2018-04-20T14:39:27.694Z,38.00
2018-04-20T14:42:01.602Z,37.80
2018-04-20T14:44:35.423Z,36.90
2018-04-20T14:47:09.994Z,40.00
2018-04-20T14:49:44.658Z,39.90
2018-04-20T14:52:18.339Z,39.80
2018-04-20T14:54:53.004Z,37.40
2018-04-20T14:57:26.820Z,37.40
2018-04-20T15:00:01.656Z,37.50
2018-04-20T15:02:36.126Z,38.00
2018-04-20T15:05:15.894Z,39.60
2018-04-20T15:07:50.702Z,39.30
2018-04-20T15:10:24.454Z,39.30
2018-04-20T15:12:59.856Z,40.90
2018-04-20T15:15:33.587Z,40.90
2018-04-20T15:18:07.966Z,41.10
2018-04-20T15:20:43.119Z,40.80
2018-04-20T15:23:17.627Z,38.40
2018-04-20T15:25:51.657Z,38.30
2018-04-20T15:28:25.421Z,39.10
2018-04-20T15:30:59.630Z,39.60
2018-04-20T15:33:33.268Z,37.90
2018-04-20T15:36:08.630Z,38.70
2018-04-20T15:38:43.220Z,38.80
2018-04-20T15:41:17.303Z,38.70
2018-04-20T15:43:51.191Z,38.20
2018-04-20T15:46:24.900Z,38.00
2018-04-20T15:48:58.572Z,37.30
2018-04-20T15:51:33.206Z,35.90
2018-04-20T15:54:07.953Z,35.50
2018-04-20T15:56:42.796Z,34.70
2018-04-20T15:59:18.186Z,34.60
2018-04-20T16:01:51.888Z,34.60
2018-04-20T16:04:26.464Z,34.70
2018-04-20T16:07:00.849Z,34.90
2018-04-20T16:09:34.792Z,34.90
2018-04-20T16:12:08.711Z,35.10
2018-04-20T16:14:43.134Z,34.50
2018-04-20T16:17:16.872Z,34.40
2018-04-20T16:19:50.745Z,34.90
2018-04-20T16:22:24.247Z,35.20
2018-04-20T16:24:58.154Z,35.60
2018-04-20T16:27:31.887Z,35.90
2018-04-20T16:30:06.595Z,33.80
2018-04-20T16:32:40.238Z,33.70
2018-04-20T16:35:14.638Z,34.80
2018-04-20T16:37:48.251Z,34.80
2018-04-20T16:40:21.951Z,35.30
2018-04-20T16:42:56.386Z,35.00
2018-04-20T16:45:30.930Z,34.50
2018-04-20T16:48:05.363Z,34.50
2018-04-20T16:50:39.199Z,34.50
2018-04-20T16:53:12.948Z,34.90
2018-04-20T16:55:46.631Z,34.40
2018-04-20T16:58:20.481Z,33.70
2018-04-20T17:00:54.379Z,33.50
2018-04-20T17:03:27.967Z,32.60
2018-04-20T17:06:02.402Z,32.70
2018-04-20T17:08:36.698Z,32.80
2018-04-20T17:11:11.242Z,32.50
2018-04-20T17:13:44.862Z,32.40
2018-04-20T17:16:19.696Z,32.30
2018-04-20T17:18:53.648Z,32.40
2018-04-20T17:21:27.291Z,32.10
2018-04-20T17:24:01.792Z,32.30
2018-04-20T17:26:36.103Z,32.90
2018-04-20T17:29:10.411Z,32.90
2018-04-20T17:31:44.308Z,32.90
2018-04-20T17:34:18.874Z,33.30
2018-04-20T17:36:53.600Z,33.00
2018-04-20T17:39:27.267Z,32.90
2018-04-20T17:42:01.833Z,32.10
2018-04-20T17:44:35.440Z,32.10
2018-04-20T17:47:09.422Z,31.60
2018-04-20T17:49:44.759Z,30.50
2018-04-20T17:52:19.334Z,30.20
2018-04-20T17:54:54.374Z,29.60
2018-04-20T17:57:29.074Z,29.00
2018-04-20T18:00:03.507Z,28.60
2018-04-20T18:02:37.328Z,28.50
2018-04-20T18:05:11.477Z,28.00
2018-04-20T18:07:45.946Z,26.70
2018-04-20T18:10:21.806Z,26.10
2018-04-20T18:12:56.688Z,25.70
2018-04-20T18:15:30.681Z,25.60
2018-04-20T18:18:04.697Z,25.20
2018-04-20T18:20:38.717Z,24.70
2018-04-20T18:23:13.522Z,24.10
2018-04-20T18:25:48.923Z,23.80
2018-04-20T18:28:23.507Z,23.60
2018-04-20T18:30:57.403Z,23.50
2018-04-20T18:33:31.424Z,23.20
2018-04-20T18:36:06.465Z,22.50
2018-04-20T18:38:41.103Z,22.30
2018-04-20T18:41:15.237Z,22.30
2018-04-20T18:43:49.164Z,22.30
2018-04-20T18:46:23.692Z,21.70
2018-04-20T18:48:58.451Z,21.20
2018-04-20T18:51:32.242Z,21.20
2018-04-20T18:54:06.038Z,21.20
2018-04-20T18:56:39.759Z,21.10
2018-04-20T18:59:13.967Z,21.00
2018-04-20T19:01:50.423Z,20.80
2018-04-20T19:04:24.891Z,20.70
2018-04-20T19:06:58.560Z,20.50
2018-04-20T19:09:32.320Z,20.20
2018-04-20T19:12:06.978Z,20.10
2018-04-20T19:14:41.755Z,19.80
2018-04-20T19:17:15.504Z,19.70
2018-04-20T19:19:49.299Z,19.80
2018-04-20T19:22:22.866Z,19.70
2018-04-20T19:24:56.399Z,19.50
2018-04-20T19:27:31.033Z,19.20
2018-04-20T19:30:04.657Z,19.20
2018-04-20T19:32:38.852Z,19.00
2018-04-20T19:35:13.705Z,18.70
2018-04-20T19:37:47.576Z,18.70
2018-04-20T19:40:22.024Z,18.60
2018-04-20T19:42:56.094Z,18.60
2018-04-20T19:45:30.669Z,18.40
2018-04-20T19:48:05.052Z,18.40
2018-04-20T19:50:39.129Z,18.40
2018-04-20T19:53:12.795Z,18.30
2018-04-20T19:55:47.318Z,18.10
2018-04-20T19:58:21.317Z,18.00
2018-04-20T20:00:55.739Z,18.00
2018-04-20T20:03:30.064Z,18.10
2018-04-20T20:06:04.421Z,17.80
2018-04-20T20:08:38.370Z,17.50
2018-04-20T20:11:12.595Z,17.50
2018-04-20T20:13:46.551Z,17.50
2018-04-20T20:16:20.375Z,17.50
2018-04-20T20:18:54.012Z,17.50
2018-04-20T20:21:28.563Z,17.40
2018-04-20T20:24:02.319Z,17.30
2018-04-20T20:26:37.858Z,16.90
2018-04-20T20:29:13.119Z,17.00
2018-04-20T20:31:47.545Z,17.00
2018-04-20T20:34:22.780Z,16.80
2018-04-20T20:36:57.509Z,16.90
2018-04-20T20:39:32.222Z,16.80
2018-04-20T20:42:06.843Z,16.80
2018-04-20T20:44:41.420Z,16.80
2018-04-20T20:47:15.995Z,16.60
2018-04-20T20:49:49.975Z,16.50
2018-04-20T20:52:23.771Z,16.30
2018-04-20T20:54:58.313Z,16.00
2018-04-20T20:57:32.135Z,16.00
2018-04-20T21:00:06.549Z,16.00
2018-04-20T21:02:40.333Z,16.00
2018-04-20T21:05:13.959Z,15.90
2018-04-20T21:07:47.979Z,15.90
2018-04-20T21:10:22.063Z,15.80
2018-04-20T21:12:55.972Z,15.70
2018-04-20T21:15:30.862Z,15.50
2018-04-20T21:18:05.448Z,15.50
2018-04-20T21:20:40.053Z,15.50
2018-04-20T21:23:14.574Z,15.40
2018-04-20T21:25:49.721Z,15.50
2018-04-20T21:28:23.528Z,15.40
2018-04-20T21:30:57.590Z,15.40
2018-04-20T21:33:32.539Z,15.10
2018-04-20T21:36:06.468Z,15.10
2018-04-20T21:38:40.440Z,15.10
2018-04-20T21:41:15.012Z,15.10
2018-04-20T21:43:49.027Z,15.10
2018-04-20T21:46:23.320Z,15.00
2018-04-20T21:48:57.157Z,14.90
2018-04-20T21:51:31.193Z,14.90
2018-04-20T21:54:05.255Z,14.80
2018-04-20T21:56:40.463Z,14.70
2018-04-20T21:59:14.999Z,14.60
2018-04-20T22:01:49.992Z,14.50
2018-04-20T22:04:24.467Z,14.30
2018-04-20T22:06:59.184Z,14.10
2018-04-20T22:09:33.451Z,14.10
2018-04-20T22:12:08.313Z,14.00
2018-04-20T22:14:42.308Z,14.00
2018-04-20T22:17:16.076Z,14.20
2018-04-20T22:19:50.707Z,13.80
2018-04-20T22:22:26.043Z,13.60
2018-04-20T22:24:59.850Z,13.60
2018-04-20T22:27:34.556Z,13.80
2018-04-20T22:30:10.293Z,13.60
2018-04-20T22:32:45.000Z,13.60
2018-04-20T22:35:19.885Z,13.70
2018-04-20T22:37:54.458Z,13.80
2018-04-20T22:40:29.171Z,13.60
2018-04-20T22:43:03.674Z,13.50
2018-04-20T22:45:37.415Z,13.50
2018-04-20T22:48:12.945Z,13.50
2018-04-20T22:50:47.568Z,13.60
2018-04-20T22:53:22.329Z,13.30
2018-04-20T22:55:56.303Z,13.30
2018-04-20T22:58:29.920Z,13.10
2018-04-20T23:01:03.702Z,13.10
2018-04-20T23:03:37.726Z,13.10
2018-04-20T23:06:11.643Z,13.00
2018-04-20T23:08:46.342Z,13.00
2018-04-20T23:11:20.047Z,13.00
2018-04-20T23:13:54.055Z,13.10
2018-04-20T23:16:27.910Z,13.10
2018-04-20T23:19:02.645Z,12.90
2018-04-20T23:21:37.303Z,12.90
2018-04-20T23:24:13.379Z,12.70
2018-04-20T23:26:47.896Z,12.60
2018-04-20T23:29:22.570Z,12.60
2018-04-20T23:31:56.447Z,12.50
2018-04-20T23:34:30.441Z,12.60
2018-04-20T23:37:04.637Z,12.60
2018-04-20T23:39:38.273Z,12.50
2018-04-20T23:42:12.847Z,12.30
2018-04-20T23:44:47.647Z,12.40
2018-04-20T23:47:21.530Z,12.40
2018-04-20T23:49:55.810Z,12.40
2018-04-20T23:52:30.946Z,12.20
2018-04-20T23:55:05.671Z,12.10
2018-04-20T23:57:39.491Z,12.20
